Estación Meteorológica Peña el Pijo (Robertgarden) [ 03/25/19 04:39:13 CET ]

Fecha Hora Presion(HPa) Temp (°C) Humedad % Rocio (°C) Viento ( m/s) Direccion Lluvia 1Hora(mm) Lluvia 24H(mm) LLuvia Total(mm)
2018-Nov-20 01:01:33 993.800 7.2 90 5.7       7.77 149.18
2018-Nov-20 02:01:39 993.500 6.9 90 5.4       6.21 149.18
2018-Nov-20 03:01:42 993.600 7.1 90 5.6       5.69 149.18
2018-Nov-20 04:03:12 993.500 6.7 90 5.2       5.18 149.18
2018-Nov-20 05:01:49 993.500 6.6 90 5.1       5.18 149.18
2018-Nov-20 06:01:46 993.600 6.5 91 5.1       5.18 149.18
2018-Nov-20 07:01:41 993.700 5.8 90 4.3       4.66 149.18
2018-Nov-20 08:02:10 993.700 4.3 90 2.8       4.14 149.18
2018-Nov-20 09:01:34 994.100 5.0 91 3.6       3.62 149.18
2018-Nov-20 10:01:46 994.600 6.3 91 4.9       2.59 149.18
2018-Nov-20 11:01:44 994.300 7.2 91 5.8     0.51 2.07 149.70
2018-Nov-20 12:01:46 993.800 10.4 89 8.6       1.03 149.70
2018-Nov-20 13:01:49 992.900 13.6 73 8.8 0.6 WNW   0.51 149.70
2018-Nov-20 14:01:47 992.600 12.8 71 7.7 1.7 N   0.51 149.70
2018-Nov-20 15:01:41 992.300 11.2 73 6.5       0.51 149.70
2018-Nov-20 16:01:44 993.200 10.6 80 7.3     0.51 1.03 150.22
2018-Nov-20 17:01:48 994.200 8.4 80 5.2     0.51 1.55 150.73
2018-Nov-20 18:01:51 995.100 6.6 82 3.7       1.55 150.73
2018-Nov-20 19:02:02 996.000 5.9 82 3.0       1.55 150.73
2018-Nov-20 20:01:50 996.300 6.6 82 3.7       1.55 150.73
2018-Nov-20 21:02:07 996.700 6.8 82 3.9 2.8 NW   1.55 150.73
2018-Nov-20 22:01:56 997.400 7.2 83 4.5       1.55 150.73
2018-Nov-20 23:01:50 998.400 7.2 82 4.3 0.7 NNW   1.55 150.73

Temperatura Máxima:13°    Temperatura Mínima:
Presión Máxima:998.400 Hpa    Presión Mínima:992.300 Hpa


Volver